createdAt,value
2018-07-23T10:22:31.649Z,27.25
2018-07-23T10:23:35.225Z,27.19
2018-07-23T10:24:38.328Z,26.55
2018-07-23T10:25:41.174Z,26.44
2018-07-23T10:26:44.392Z,25.92
2018-07-23T10:27:49.797Z,25.78
2018-07-23T10:28:56.804Z,25.41
2018-07-23T10:30:00.498Z,25.14
2018-07-23T10:31:04.494Z,24.72
2018-07-23T10:32:08.077Z,25.07
2018-07-23T10:33:11.055Z,25.08
2018-07-23T10:34:15.055Z,25.21
2018-07-23T10:35:19.628Z,24.96
2018-07-23T10:36:22.637Z,25.08
2018-07-23T10:37:26.682Z,25.24
2018-07-23T10:38:31.950Z,25.53
2018-07-23T10:39:35.390Z,25.61
2018-07-23T10:40:38.689Z,25.65
2018-07-23T10:41:41.929Z,25.81
2018-07-23T10:42:44.841Z,26.11
2018-07-23T10:43:47.706Z,26.01
2018-07-23T10:44:55.526Z,25.54
2018-07-23T10:46:02.525Z,25.46
2018-07-23T10:47:05.796Z,25.43
2018-07-23T10:48:11.399Z,25.42
2018-07-23T10:49:24.694Z,25.90
2018-07-23T10:50:28.261Z,25.78
2018-07-23T10:51:31.409Z,25.46
2018-07-23T10:52:37.405Z,25.37
2018-07-23T10:53:44.397Z,25.34
2018-07-23T10:54:49.426Z,25.15
2018-07-23T10:55:54.720Z,24.97
2018-07-23T10:56:59.628Z,24.98
2018-07-23T10:58:05.610Z,24.95
2018-07-23T10:59:13.754Z,24.95
2018-07-23T11:00:18.839Z,25.44
2018-07-23T11:01:24.883Z,26.16
2018-07-23T11:02:30.548Z,26.67
2018-07-23T11:03:36.524Z,26.32
2018-07-23T11:04:42.360Z,26.22
2018-07-23T11:05:52.000Z,26.08
2018-07-23T11:07:03.149Z,26.04
2018-07-23T11:08:10.809Z,26.30
2018-07-23T11:09:17.466Z,26.52
2018-07-23T11:10:23.865Z,26.78
2018-07-23T11:11:31.406Z,26.57
2018-07-23T11:12:37.768Z,25.52
2018-07-23T11:13:42.580Z,25.74
2018-07-23T11:14:47.330Z,26.52
2018-07-23T11:15:50.913Z,26.87
2018-07-23T11:16:54.187Z,27.62
2018-07-23T11:17:58.070Z,27.44
2018-07-23T11:19:02.719Z,27.59
2018-07-23T11:20:05.558Z,27.16
2018-07-23T11:21:09.338Z,26.37
2018-07-23T11:22:12.218Z,26.74
2018-07-23T11:23:16.611Z,26.36
2018-07-23T11:24:20.453Z,26.29
2018-07-23T11:25:40.902Z,26.36
2018-07-23T11:26:34.237Z,26.80
2018-07-23T11:27:39.495Z,26.87
2018-07-23T11:28:44.102Z,27.03
2018-07-23T11:29:47.164Z,27.18
2018-07-23T11:30:51.394Z,27.19
2018-07-23T11:31:58.855Z,27.38
2018-07-23T11:33:03.171Z,27.14
2018-07-23T11:34:07.673Z,26.25
2018-07-23T11:35:15.830Z,25.95
2018-07-23T11:36:18.856Z,26.45
2018-07-23T11:37:22.474Z,26.68
2018-07-23T11:38:25.782Z,26.63
2018-07-23T11:39:28.997Z,26.23
2018-07-23T11:40:36.810Z,26.45
2018-07-23T11:41:40.595Z,26.16
2018-07-23T11:42:44.735Z,26.18
2018-07-23T11:43:47.670Z,25.57
2018-07-23T11:44:51.968Z,25.53
2018-07-23T11:45:54.845Z,25.82
2018-07-23T11:47:04.042Z,25.99
2018-07-23T11:48:09.673Z,25.59
2018-07-23T11:49:15.128Z,25.35
2018-07-23T11:50:19.596Z,25.58
2018-07-23T11:51:24.680Z,26.01
2018-07-23T11:52:29.237Z,26.04
2018-07-23T11:53:32.141Z,25.32
2018-07-23T11:54:37.058Z,25.53
2018-07-23T11:55:40.553Z,25.59
2018-07-23T11:56:44.454Z,25.63
2018-07-23T11:57:48.058Z,25.65
2018-07-23T11:58:52.791Z,25.76
2018-07-23T11:59:57.044Z,25.82
2018-07-23T12:01:02.340Z,25.83
2018-07-23T12:02:05.834Z,25.82
2018-07-23T12:03:12.133Z,26.33
2018-07-23T12:04:16.230Z,26.82
2018-07-23T12:05:20.489Z,26.88
2018-07-23T12:06:23.467Z,26.73
2018-07-23T12:07:26.378Z,27.05
2018-07-23T12:08:31.588Z,27.36
2018-07-23T12:09:35.381Z,27.83
2018-07-23T12:10:38.330Z,28.06
2018-07-23T12:11:41.636Z,28.49
2018-07-23T12:12:44.478Z,28.34
2018-07-23T12:13:47.344Z,27.76
2018-07-23T12:14:56.717Z,27.04
2018-07-23T12:15:59.833Z,27.54
2018-07-23T12:17:05.207Z,27.70
2018-07-23T12:18:08.306Z,27.91
2018-07-23T12:19:12.700Z,27.51
2018-07-23T12:20:17.933Z,27.24
2018-07-23T12:21:21.397Z,26.79
2018-07-23T12:22:26.509Z,26.57
2018-07-23T12:23:29.421Z,26.51
2018-07-23T12:24:35.697Z,26.87
2018-07-23T12:25:40.100Z,27.11
2018-07-23T12:26:45.118Z,26.69
2018-07-23T12:27:48.410Z,26.55
2018-07-23T12:28:51.388Z,26.84
2018-07-23T12:29:54.306Z,27.40
2018-07-23T12:30:57.201Z,28.02
2018-07-23T12:32:00.064Z,28.50
2018-07-23T12:33:04.626Z,28.51
2018-07-23T12:34:10.457Z,28.36
2018-07-23T12:35:15.377Z,28.52
2018-07-23T12:36:18.952Z,27.59
2018-07-23T12:37:22.255Z,27.07
2018-07-23T12:38:25.110Z,27.88
2018-07-23T12:39:28.042Z,28.25
2018-07-23T12:40:36.493Z,28.60
2018-07-23T12:41:39.797Z,28.49
2018-07-23T12:42:42.757Z,28.11
2018-07-23T12:43:46.264Z,28.03
2018-07-23T12:44:49.433Z,28.25
2018-07-23T12:45:52.336Z,28.56
2018-07-23T12:46:55.476Z,28.90
2018-07-23T12:48:59.889Z,28.07
2018-07-23T12:50:03.110Z,27.58
2018-07-23T12:51:06.295Z,27.60
2018-07-23T12:52:11.029Z,27.88
2018-07-23T12:53:17.996Z,28.06
2018-07-23T12:54:21.406Z,28.30
2018-07-23T12:55:26.668Z,28.34
2018-07-23T12:56:30.504Z,28.34
2018-07-23T12:57:33.632Z,28.21
2018-07-23T12:58:36.756Z,28.28
2018-07-23T12:59:40.447Z,28.23
2018-07-23T13:00:43.798Z,28.25
2018-07-23T13:01:47.462Z,28.17
2018-07-23T13:02:50.466Z,27.99
2018-07-23T13:03:53.587Z,28.13
2018-07-23T13:04:56.532Z,28.00
2018-07-23T13:05:59.740Z,27.97
2018-07-23T13:07:02.821Z,28.05
2018-07-23T13:08:06.325Z,27.43
2018-07-23T13:09:09.916Z,26.99
2018-07-23T13:11:27.134Z,26.47
2018-07-23T13:12:30.667Z,26.47
2018-07-23T13:13:34.356Z,26.80
2018-07-23T13:14:38.236Z,27.03
2018-07-23T13:15:41.113Z,27.25
2018-07-23T13:16:44.399Z,27.33
2018-07-23T13:17:47.252Z,27.45
2018-07-23T13:18:51.549Z,27.26
2018-07-23T13:19:54.465Z,27.30
2018-07-23T13:20:57.395Z,27.44
2018-07-23T13:22:01.096Z,27.59
2018-07-23T13:23:04.479Z,27.92
2018-07-23T13:25:20.563Z,28.40
2018-07-23T13:26:23.524Z,28.28
2018-07-23T13:27:33.139Z,29.01
2018-07-23T13:28:36.463Z,29.11
2018-07-23T13:29:39.562Z,28.86
2018-07-23T13:30:46.611Z,28.92
2018-07-23T13:31:49.700Z,28.57
2018-07-23T13:32:52.615Z,27.92
2018-07-23T13:33:55.530Z,28.06
2018-07-23T13:34:58.492Z,28.07
2018-07-23T13:36:02.691Z,27.88
2018-07-23T13:37:06.893Z,27.79
2018-07-23T13:38:10.453Z,28.01
2018-07-23T13:39:14.734Z,27.96
2018-07-23T13:40:25.355Z,28.08
2018-07-23T13:41:28.250Z,27.99
2018-07-23T13:42:31.976Z,27.97
2018-07-23T13:43:36.767Z,27.71
2018-07-23T13:44:43.467Z,27.53
2018-07-23T13:45:46.516Z,27.67
2018-07-23T13:46:50.155Z,27.09
2018-07-23T13:47:53.745Z,27.38
2018-07-23T13:48:56.639Z,27.49
2018-07-23T13:50:00.117Z,27.89
2018-07-23T13:51:03.082Z,28.09
2018-07-23T13:52:06.978Z,27.99
2018-07-23T13:53:09.815Z,28.13
2018-07-23T13:54:13.849Z,27.85
2018-07-23T13:55:17.502Z,28.56
2018-07-23T13:56:20.985Z,29.15
2018-07-23T13:57:23.913Z,29.78
2018-07-23T13:58:30.167Z,30.27
2018-07-23T13:59:35.525Z,30.76
2018-07-23T14:00:39.369Z,31.14
2018-07-23T14:01:44.372Z,31.11
2018-07-23T14:02:48.860Z,31.08
2018-07-23T14:03:53.127Z,31.35
2018-07-23T14:04:58.081Z,31.32
2018-07-23T14:06:02.069Z,31.37
2018-07-23T14:07:07.487Z,31.55
2018-07-23T14:08:12.279Z,31.70
2018-07-23T14:09:16.593Z,31.56
2018-07-23T14:10:19.590Z,31.71
2018-07-23T14:11:22.615Z,31.93
2018-07-23T14:12:25.474Z,32.46
2018-07-23T14:13:28.358Z,32.08
2018-07-23T14:14:31.992Z,31.43
2018-07-23T14:16:55.354Z,30.57
2018-07-23T14:19:12.679Z,30.28
2018-07-23T14:20:23.315Z,29.95
2018-07-23T14:22:43.359Z,30.86
2018-07-23T14:23:48.079Z,31.52
2018-07-23T14:24:50.926Z,31.94
2018-07-23T14:25:55.110Z,32.57
2018-07-23T14:27:02.766Z,32.28
2018-07-23T14:28:10.421Z,31.46
2018-07-23T14:29:14.401Z,30.88
2018-07-23T14:30:17.485Z,29.67
2018-07-23T14:31:20.510Z,29.34
2018-07-23T15:01:19.405Z,33.05
2018-07-23T15:02:22.343Z,34.17
2018-07-23T15:03:25.660Z,34.10
2018-07-23T15:04:28.614Z,34.74
2018-07-23T15:05:32.148Z,35.54
2018-07-23T15:06:38.094Z,35.96
2018-07-23T15:07:45.337Z,35.80
2018-07-23T15:08:49.353Z,36.06
2018-07-23T15:09:53.504Z,35.68
2018-07-23T15:10:56.653Z,34.91
2018-07-23T15:11:59.650Z,34.71
2018-07-23T15:13:05.256Z,35.16
2018-07-23T15:14:08.259Z,33.21
2018-07-23T15:15:11.253Z,32.38
2018-07-23T15:16:14.251Z,32.56
2018-07-23T15:17:17.144Z,33.48
2018-07-23T15:18:20.193Z,31.73
2018-07-23T15:19:24.413Z,32.62
2018-07-23T15:20:27.375Z,32.43
2018-07-23T15:21:31.285Z,32.14
2018-07-23T15:22:35.187Z,33.32
2018-07-23T15:23:38.249Z,31.85
2018-07-23T15:24:44.497Z,31.96
2018-07-23T15:25:49.856Z,33.50
2018-07-23T15:26:52.765Z,33.81
2018-07-23T15:27:55.975Z,33.83
2018-07-23T15:28:58.961Z,34.25
2018-07-23T15:30:05.472Z,34.80
2018-07-23T15:31:09.727Z,35.92
2018-07-23T15:32:13.038Z,35.65
2018-07-23T15:33:16.468Z,35.59
2018-07-23T15:34:20.800Z,35.93
2018-07-23T15:35:24.356Z,33.43
2018-07-23T15:36:27.706Z,33.09
2018-07-23T15:37:31.444Z,32.68
2018-07-23T15:38:34.737Z,33.59
2018-07-23T15:39:37.747Z,33.21
2018-07-23T15:40:45.959Z,33.94
2018-07-23T15:41:51.870Z,34.51
2018-07-23T15:44:15.690Z,35.60
2018-07-23T15:45:18.867Z,36.10
2018-07-23T15:46:22.128Z,34.36
2018-07-23T15:47:32.670Z,34.44
2018-07-23T15:48:40.969Z,35.87
2018-07-23T15:49:44.026Z,35.43
2018-07-23T15:50:51.883Z,36.04
2018-07-23T15:51:56.603Z,34.03
2018-07-23T15:53:07.379Z,34.67
2018-07-23T15:54:11.955Z,34.33
2018-07-23T15:55:15.468Z,32.43
2018-07-23T15:56:21.181Z,31.44
2018-07-23T15:57:25.214Z,30.81
2018-07-23T15:58:31.643Z,30.15
2018-07-23T15:59:35.711Z,30.06
2018-07-23T16:00:48.315Z,29.97
2018-07-23T16:01:59.136Z,29.85
2018-07-23T16:03:03.599Z,29.84
2018-07-23T16:04:06.966Z,29.85
2018-07-23T16:05:11.442Z,29.95
2018-07-23T16:06:16.292Z,31.55
2018-07-23T16:07:27.233Z,32.12
2018-07-23T16:08:30.486Z,34.00
2018-07-23T16:09:35.049Z,34.82
2018-07-23T16:10:39.093Z,35.65
2018-07-23T16:11:43.818Z,36.28
2018-07-23T16:12:50.624Z,36.39
2018-07-23T16:13:53.812Z,33.29
2018-07-23T16:14:57.111Z,32.18
2018-07-23T16:16:05.277Z,30.51
2018-07-23T16:17:09.324Z,29.47
2018-07-23T16:18:12.199Z,29.34
2018-07-23T16:19:15.499Z,29.36
2018-07-23T16:20:19.824Z,29.49
2018-07-23T16:21:24.005Z,29.40
2018-07-23T16:22:28.563Z,29.41
2018-07-23T16:23:37.805Z,29.34
2018-07-23T16:28:52.683Z,29.10
2018-07-23T16:30:06.885Z,29.11
2018-07-23T16:31:11.611Z,29.11
2018-07-23T16:32:17.148Z,28.99
2018-07-23T16:33:26.816Z,29.04
2018-07-23T16:35:56.212Z,28.98
2018-07-23T16:37:07.597Z,28.84
2018-07-23T16:38:13.891Z,29.01
2018-07-23T16:39:20.374Z,29.45
2018-07-23T16:40:40.708Z,29.17
2018-07-23T16:42:02.597Z,28.85
2018-07-23T16:43:11.705Z,28.72
2018-07-23T16:44:23.112Z,28.40
2018-07-23T16:45:26.955Z,28.59
2018-07-23T16:46:31.041Z,28.86
2018-07-23T16:47:40.667Z,29.05
2018-07-23T16:49:03.876Z,29.11
2018-07-23T16:51:59.280Z,28.95
2018-07-23T16:53:14.958Z,29.08
2018-07-23T16:54:25.448Z,28.98
2018-07-23T16:55:30.493Z,28.93
2018-07-23T16:56:41.690Z,28.95
2018-07-23T16:57:46.309Z,28.76
2018-07-23T16:58:50.244Z,28.61
2018-07-23T16:59:57.920Z,28.56
2018-07-23T17:01:05.572Z,28.55
2018-07-23T17:02:09.973Z,28.53
2018-07-23T17:03:14.634Z,28.56
2018-07-23T17:04:18.956Z,28.61
2018-07-23T17:05:40.126Z,28.57
2018-07-23T17:06:46.581Z,28.50
2018-07-23T17:07:50.827Z,28.34
2018-07-23T17:08:57.550Z,28.24
2018-07-23T17:10:04.722Z,28.35
2018-07-23T17:11:09.525Z,28.37
2018-07-23T17:12:15.971Z,28.49
2018-07-23T17:13:25.097Z,28.50
2018-07-23T17:14:30.804Z,28.48
2018-07-23T17:15:36.813Z,28.43
2018-07-23T17:16:40.205Z,28.45
2018-07-23T17:17:45.582Z,28.32
2018-07-23T17:18:55.074Z,28.27
2018-07-23T17:20:04.674Z,28.21
2018-07-23T17:21:09.777Z,28.20
2018-07-23T17:22:13.673Z,28.27
2018-07-23T17:23:19.651Z,28.29
2018-07-23T17:25:38.986Z,28.41
2018-07-23T17:26:43.136Z,28.48
2018-07-23T17:27:47.302Z,28.54
2018-07-23T17:28:52.757Z,28.47
2018-07-23T17:29:58.136Z,28.41
2018-07-23T17:31:07.485Z,28.31
2018-07-23T17:32:24.597Z,28.34
2018-07-23T17:33:40.698Z,28.33
2018-07-23T17:34:54.626Z,28.33
2018-07-23T17:37:27.834Z,28.41
2018-07-23T17:38:37.268Z,28.41
2018-07-23T17:41:09.593Z,28.31
2018-07-23T17:48:31.459Z,28.04
2018-07-23T17:49:39.045Z,28.03
2018-07-23T17:50:55.678Z,28.05
2018-07-23T17:52:01.364Z,28.13
2018-07-23T17:53:14.836Z,28.23
2018-07-23T17:56:22.411Z,28.02
2018-07-23T18:03:20.826Z,27.90
2018-07-23T18:04:33.643Z,27.84
2018-07-23T18:05:48.179Z,27.80
2018-07-23T18:08:06.967Z,27.79
2018-07-23T18:09:14.475Z,27.82
2018-07-23T18:10:33.496Z,27.83
2018-07-23T18:11:40.754Z,27.76
2018-07-23T18:17:53.046Z,27.71
2018-07-23T18:18:59.888Z,27.46
2018-07-23T18:20:06.826Z,27.44
2018-07-23T18:21:15.056Z,27.43
2018-07-23T18:22:25.130Z,27.47
2018-07-23T18:23:28.659Z,27.36
2018-07-23T18:25:54.201Z,27.37
2018-07-23T18:28:12.606Z,27.29
2018-07-23T18:29:22.262Z,27.26
2018-07-23T18:31:40.184Z,27.11
2018-07-23T18:32:43.152Z,27.11
2018-07-23T18:33:49.844Z,27.08
2018-07-23T18:34:56.659Z,27.10
2018-07-23T18:36:00.752Z,27.06
2018-07-23T18:37:09.288Z,27.08
2018-07-23T18:38:16.456Z,27.09
2018-07-23T18:39:28.171Z,27.09
2018-07-23T18:40:33.994Z,27.06
2018-07-23T18:41:39.922Z,27.07
2018-07-23T18:42:44.866Z,26.98
2018-07-23T18:43:50.841Z,26.96
2018-07-23T18:44:56.888Z,26.96
2018-07-23T18:46:02.806Z,26.94
2018-07-23T18:47:10.471Z,26.96
2018-07-23T18:48:18.574Z,26.90
2018-07-23T18:49:25.838Z,26.90
2018-07-23T18:50:31.350Z,26.89
2018-07-23T18:51:41.786Z,26.85
2018-07-23T18:52:47.650Z,26.75
2018-07-23T18:53:53.467Z,26.72
2018-07-23T18:54:58.004Z,26.74
2018-07-23T18:56:01.222Z,26.76
2018-07-23T18:57:06.356Z,26.72
2018-07-23T18:58:10.181Z,26.71
2018-07-23T18:59:13.038Z,26.70
2018-07-23T19:00:15.874Z,26.67
2018-07-23T19:01:18.811Z,26.63
2018-07-23T19:02:22.055Z,26.61
2018-07-23T19:03:25.328Z,26.59
2018-07-23T19:04:28.420Z,26.58
2018-07-23T19:05:34.691Z,26.58
2018-07-23T19:06:37.839Z,26.50
2018-07-23T19:07:43.900Z,26.44
2018-07-23T19:08:49.044Z,26.36
2018-07-23T19:09:52.604Z,26.26
2018-07-23T19:10:55.713Z,26.23
2018-07-23T19:12:01.065Z,26.18
2018-07-23T19:13:07.857Z,26.18
2018-07-23T19:14:11.260Z,26.16
2018-07-23T19:15:16.329Z,26.05
2018-07-23T19:16:20.408Z,26.06
2018-07-23T19:17:23.265Z,26.09
2018-07-23T19:18:29.322Z,26.06
2018-07-23T19:19:35.860Z,26.02
2018-07-23T19:20:41.032Z,26.01
2018-07-23T19:22:58.624Z,25.91
2018-07-23T19:24:01.849Z,25.88
2018-07-23T19:25:04.828Z,25.86
2018-07-23T19:26:08.155Z,25.85
2018-07-23T19:27:11.508Z,25.84
2018-07-23T19:28:14.809Z,25.82
2018-07-23T19:29:22.675Z,25.81
2018-07-23T19:30:25.790Z,25.81
2018-07-23T19:31:29.508Z,25.77
2018-07-23T19:32:32.343Z,25.75
2018-07-23T19:33:35.773Z,25.77
2018-07-23T20:06:07.238Z,25.34
2018-07-23T20:07:10.493Z,25.34
2018-07-23T20:08:13.820Z,25.33
2018-07-23T20:09:18.076Z,25.30
2018-07-23T20:10:22.980Z,25.28
2018-07-23T20:11:28.224Z,25.27
2018-07-23T20:12:34.662Z,25.29
2018-07-23T20:14:49.955Z,25.13
2018-07-23T20:15:58.187Z,25.06
2018-07-23T20:19:37.333Z,24.81
2018-07-23T20:20:42.459Z,24.62
2018-07-23T20:21:45.845Z,24.46
2018-07-23T20:22:57.293Z,24.38
2018-07-23T20:29:32.225Z,24.45
2018-07-23T20:30:35.162Z,24.46
2018-07-23T20:31:38.217Z,24.48
2018-07-23T20:32:42.037Z,24.39
2018-07-23T20:33:47.243Z,24.39
2018-07-23T20:35:04.032Z,24.41
2018-07-23T20:36:08.213Z,24.43
2018-07-23T20:37:19.340Z,24.36
2018-07-23T20:38:23.316Z,24.32
2018-07-23T20:39:27.352Z,24.24
2018-07-23T20:40:30.524Z,24.16
2018-07-23T20:41:33.694Z,24.16
2018-07-23T20:42:38.349Z,24.12
2018-07-23T20:43:42.598Z,24.14
2018-07-23T20:44:45.572Z,24.18
2018-07-23T20:45:49.147Z,24.21
2018-07-23T20:46:52.271Z,24.25
2018-07-23T20:47:55.647Z,24.24
2018-07-23T20:48:59.336Z,24.16
2018-07-23T20:50:02.568Z,24.05
2018-07-23T20:51:05.591Z,23.90
2018-07-23T20:52:09.487Z,23.72
2018-07-23T20:53:12.914Z,23.64
2018-07-23T20:54:19.692Z,23.27
2018-07-23T20:55:23.340Z,23.10
2018-07-23T20:56:26.639Z,23.10
2018-07-23T20:57:30.688Z,23.04
2018-07-23T20:58:35.402Z,22.97
2018-07-23T20:59:38.552Z,23.09
2018-07-23T21:00:41.696Z,23.14
2018-07-23T21:01:44.571Z,23.13
2018-07-23T21:02:48.492Z,23.11
2018-07-23T21:03:52.792Z,23.20
2018-07-23T21:04:55.848Z,23.31
2018-07-23T21:05:59.868Z,23.40
2018-07-23T21:07:03.331Z,23.28
2018-07-23T21:08:06.511Z,23.18
2018-07-23T21:09:10.570Z,23.12
2018-07-23T21:10:14.302Z,23.07
2018-07-23T21:11:18.611Z,22.99
2018-07-23T21:12:24.535Z,22.94
2018-07-23T21:13:27.640Z,22.86
2018-07-23T21:14:31.138Z,22.77
2018-07-23T21:15:36.309Z,22.69
2018-07-23T21:16:43.534Z,22.60
2018-07-23T21:17:46.507Z,22.66
2018-07-23T21:18:50.130Z,22.68
2018-07-23T21:19:54.546Z,22.65
2018-07-23T21:20:59.192Z,22.63
2018-07-23T21:22:02.371Z,22.55
2018-07-23T21:23:07.807Z,22.44
2018-07-23T21:24:16.579Z,22.49
2018-07-23T21:25:22.567Z,22.62
2018-07-23T21:26:25.385Z,22.73
2018-07-23T21:27:28.857Z,22.67
2018-07-23T21:28:33.777Z,22.66
2018-07-23T21:29:37.610Z,22.69
2018-07-23T21:30:41.573Z,22.66
2018-07-23T21:31:45.001Z,22.58
2018-07-23T21:32:49.162Z,22.48
2018-07-23T21:33:52.466Z,22.38
2018-07-23T21:34:59.577Z,22.27
2018-07-23T21:36:08.368Z,22.20
2018-07-23T21:37:16.553Z,22.20
2018-07-23T21:38:21.636Z,22.09
2018-07-23T21:43:12.235Z,21.92
2018-07-23T21:44:22.742Z,22.06
2018-07-23T21:51:03.572Z,22.19
2018-07-23T21:52:08.273Z,22.24
2018-07-23T21:54:30.235Z,22.15
2018-07-23T21:56:49.015Z,22.16
2018-07-23T21:57:52.552Z,22.24
2018-07-23T21:58:57.141Z,22.22
2018-07-23T22:00:01.247Z,21.96
2018-07-23T22:01:06.436Z,22.01
2018-07-23T22:07:11.131Z,22.13
2018-07-23T23:21:42.838Z,20.26
2018-07-23T23:22:45.834Z,20.19
2018-07-23T23:31:14.696Z,20.23
2018-07-23T23:32:20.351Z,19.94
2018-07-23T23:33:25.313Z,19.93
2018-07-23T23:34:31.690Z,19.92
2018-07-23T23:35:35.585Z,19.93
2018-07-23T23:36:39.825Z,19.95
2018-07-23T23:37:51.789Z,20.08
2018-07-23T23:38:54.799Z,20.02
2018-07-23T23:39:58.160Z,19.99
2018-07-23T23:41:02.432Z,19.94
2018-07-23T23:42:05.987Z,19.88
2018-07-23T23:43:10.190Z,19.85
2018-07-23T23:45:28.832Z,19.65
2018-07-23T23:46:32.567Z,19.52
2018-07-23T23:47:35.711Z,19.49
2018-07-23T23:48:42.107Z,19.48
2018-07-23T23:49:45.014Z,19.53
2018-07-23T23:50:57.692Z,19.48
2018-07-23T23:52:03.065Z,19.44
2018-07-23T23:53:10.394Z,19.45
2018-07-23T23:54:16.919Z,19.42
2018-07-23T23:55:21.148Z,19.51
2018-07-23T23:56:24.653Z,19.55
2018-07-23T23:57:27.999Z,19.57
2018-07-23T23:58:31.175Z,19.57
2018-07-23T23:59:35.090Z,19.63
